sensor_id;sensor_type;location;lat;lon;timestamp;P1;durP1;ratioP1;P2;durP2;ratioP2
11123;SDS011;5616;42.692;23.312;2023-03-19T00:01:37;15.00;;;9.90;;
11123;SDS011;5616;42.692;23.312;2023-03-19T00:04:04;17.90;;;9.17;;
11123;SDS011;5616;42.692;23.312;2023-03-19T00:06:31;14.33;;;10.50;;
11123;SDS011;5616;42.692;23.312;2023-03-19T00:08:58;15.47;;;9.40;;
11123;SDS011;5616;42.692;23.312;2023-03-19T00:11:26;14.57;;;9.10;;
11123;SDS011;5616;42.692;23.312;2023-03-19T00:13:52;14.30;;;9.93;;
11123;SDS011;5616;42.692;23.312;2023-03-19T00:16:19;15.77;;;10.37;;
11123;SDS011;5616;42.692;23.312;2023-03-19T00:18:48;17.10;;;10.37;;
11123;SDS011;5616;42.692;23.312;2023-03-19T00:21:14;18.13;;;9.30;;
11123;SDS011;5616;42.692;23.312;2023-03-19T00:23:41;13.27;;;9.30;;
11123;SDS011;5616;42.692;23.312;2023-03-19T00:26:08;13.67;;;9.30;;
11123;SDS011;5616;42.692;23.312;2023-03-19T00:28:36;13.77;;;9.63;;
11123;SDS011;5616;42.692;23.312;2023-03-19T00:31:07;15.00;;;8.77;;
11123;SDS011;5616;42.692;23.312;2023-03-19T00:33:34;13.83;;;8.53;;
11123;SDS011;5616;42.692;23.312;2023-03-19T00:36:03;17.53;;;9.67;;
11123;SDS011;5616;42.692;23.312;2023-03-19T00:38:32;13.70;;;8.60;;
11123;SDS011;5616;42.692;23.312;2023-03-19T00:41:01;13.70;;;9.13;;
11123;SDS011;5616;42.692;23.312;2023-03-19T00:43:29;14.10;;;8.07;;
11123;SDS011;5616;42.692;23.312;2023-03-19T00:45:56;12.97;;;8.57;;
11123;SDS011;5616;42.692;23.312;2023-03-19T00:48:23;12.63;;;7.73;;
11123;SDS011;5616;42.692;23.312;2023-03-19T00:50:50;13.00;;;8.30;;
11123;SDS011;5616;42.692;23.312;2023-03-19T00:53:18;10.77;;;7.83;;
11123;SDS011;5616;42.692;23.312;2023-03-19T00:55:45;12.93;;;8.53;;
11123;SDS011;5616;42.692;23.312;2023-03-19T00:58:12;12.87;;;8.00;;
11123;SDS011;5616;42.692;23.312;2023-03-19T01:00:39;13.13;;;7.97;;
11123;SDS011;5616;42.692;23.312;2023-03-19T01:03:08;11.40;;;8.40;;
11123;SDS011;5616;42.692;23.312;2023-03-19T01:05:35;12.90;;;7.00;;
11123;SDS011;5616;42.692;23.312;2023-03-19T01:08:02;11.30;;;7.93;;
11123;SDS011;5616;42.692;23.312;2023-03-19T01:10:31;12.60;;;8.20;;
11123;SDS011;5616;42.692;23.312;2023-03-19T01:13:00;9.33;;;7.30;;
11123;SDS011;5616;42.692;23.312;2023-03-19T01:15:27;9.20;;;7.27;;
11123;SDS011;5616;42.692;23.312;2023-03-19T01:17:54;11.53;;;7.60;;
11123;SDS011;5616;42.692;23.312;2023-03-19T01:20:21;11.00;;;7.43;;
11123;SDS011;5616;42.692;23.312;2023-03-19T01:22:48;11.17;;;7.03;;
11123;SDS011;5616;42.692;23.312;2023-03-19T01:25:15;11.27;;;7.90;;
11123;SDS011;5616;42.692;23.312;2023-03-19T01:27:56;13.33;;;8.00;;
11123;SDS011;5616;42.692;23.312;2023-03-19T01:30:22;11.83;;;8.50;;
11123;SDS011;5616;42.692;23.312;2023-03-19T01:33:08;12.53;;;8.53;;
11123;SDS011;5616;42.692;23.312;2023-03-19T01:35:55;14.50;;;8.90;;
11123;SDS011;5616;42.692;23.312;2023-03-19T01:38:27;13.73;;;8.67;;
11123;SDS011;5616;42.692;23.312;2023-03-19T01:40:59;14.77;;;9.90;;
11123;SDS011;5616;42.692;23.312;2023-03-19T01:43:28;15.43;;;9.80;;
11123;SDS011;5616;42.692;23.312;2023-03-19T01:46:06;19.10;;;9.83;;
11123;SDS011;5616;42.692;23.312;2023-03-19T01:49:04;13.93;;;9.10;;
11123;SDS011;5616;42.692;23.312;2023-03-19T01:51:34;15.77;;;10.27;;
11123;SDS011;5616;42.692;23.312;2023-03-19T01:54:23;18.73;;;11.00;;
11123;SDS011;5616;42.692;23.312;2023-03-19T01:57:10;18.87;;;10.73;;
11123;SDS011;5616;42.692;23.312;2023-03-19T01:59:59;17.27;;;11.47;;
11123;SDS011;5616;42.692;23.312;2023-03-19T02:02:44;17.87;;;11.27;;
11123;SDS011;5616;42.692;23.312;2023-03-19T02:05:36;19.33;;;11.67;;
11123;SDS011;5616;42.692;23.312;2023-03-19T02:08:08;20.17;;;11.70;;
11123;SDS011;5616;42.692;23.312;2023-03-19T02:10:38;16.53;;;12.00;;
11123;SDS011;5616;42.692;23.312;2023-03-19T02:13:06;17.87;;;11.47;;
11123;SDS011;5616;42.692;23.312;2023-03-19T02:15:34;20.37;;;12.83;;
11123;SDS011;5616;42.692;23.312;2023-03-19T02:18:01;20.23;;;12.03;;
11123;SDS011;5616;42.692;23.312;2023-03-19T02:20:29;19.67;;;12.43;;
11123;SDS011;5616;42.692;23.312;2023-03-19T02:23:02;19.33;;;11.87;;
11123;SDS011;5616;42.692;23.312;2023-03-19T02:25:38;15.47;;;11.87;;
11123;SDS011;5616;42.692;23.312;2023-03-19T02:28:17;17.73;;;11.13;;
11123;SDS011;5616;42.692;23.312;2023-03-19T02:30:50;16.97;;;11.23;;
11123;SDS011;5616;42.692;23.312;2023-03-19T02:33:17;16.53;;;10.70;;
11123;SDS011;5616;42.692;23.312;2023-03-19T02:35:46;21.47;;;12.03;;
11123;SDS011;5616;42.692;23.312;2023-03-19T02:38:17;17.97;;;11.03;;
11123;SDS011;5616;42.692;23.312;2023-03-19T02:40:47;19.13;;;11.27;;
11123;SDS011;5616;42.692;23.312;2023-03-19T02:43:20;14.90;;;9.80;;
11123;SDS011;5616;42.692;23.312;2023-03-19T02:45:49;14.47;;;9.97;;
11123;SDS011;5616;42.692;23.312;2023-03-19T02:48:17;15.47;;;9.70;;
11123;SDS011;5616;42.692;23.312;2023-03-19T02:53:32;15.00;;;9.60;;
11123;SDS011;5616;42.692;23.312;2023-03-19T02:56:01;12.53;;;8.90;;
11123;SDS011;5616;42.692;23.312;2023-03-19T02:58:28;10.73;;;8.33;;
11123;SDS011;5616;42.692;23.312;2023-03-19T03:00:55;10.43;;;7.30;;
11123;SDS011;5616;42.692;23.312;2023-03-19T03:03:22;11.10;;;7.40;;
11123;SDS011;5616;42.692;23.312;2023-03-19T03:05:49;10.60;;;6.77;;
11123;SDS011;5616;42.692;23.312;2023-03-19T03:08:15;8.77;;;6.30;;
11123;SDS011;5616;42.692;23.312;2023-03-19T03:10:42;8.90;;;5.83;;
11123;SDS011;5616;42.692;23.312;2023-03-19T03:13:11;9.87;;;6.10;;
11123;SDS011;5616;42.692;23.312;2023-03-19T03:15:38;12.90;;;7.27;;
11123;SDS011;5616;42.692;23.312;2023-03-19T03:18:05;11.67;;;6.97;;
11123;SDS011;5616;42.692;23.312;2023-03-19T03:20:32;9.93;;;7.17;;
11123;SDS011;5616;42.692;23.312;2023-03-19T03:22:59;10.47;;;7.30;;
11123;SDS011;5616;42.692;23.312;2023-03-19T03:25:26;10.57;;;7.37;;
11123;SDS011;5616;42.692;23.312;2023-03-19T03:27:54;12.20;;;7.57;;
11123;SDS011;5616;42.692;23.312;2023-03-19T03:30:23;9.20;;;7.37;;
11123;SDS011;5616;42.692;23.312;2023-03-19T03:32:49;12.97;;;7.93;;
11123;SDS011;5616;42.692;23.312;2023-03-19T03:35:16;11.50;;;7.73;;
11123;SDS011;5616;42.692;23.312;2023-03-19T03:37:46;11.00;;;7.90;;
11123;SDS011;5616;42.692;23.312;2023-03-19T03:40:14;15.40;;;8.50;;
11123;SDS011;5616;42.692;23.312;2023-03-19T03:42:41;12.77;;;8.97;;
11123;SDS011;5616;42.692;23.312;2023-03-19T03:45:09;19.20;;;8.70;;
11123;SDS011;5616;42.692;23.312;2023-03-19T03:47:40;12.63;;;8.80;;
11123;SDS011;5616;42.692;23.312;2023-03-19T03:50:07;10.83;;;8.03;;
11123;SDS011;5616;42.692;23.312;2023-03-19T03:52:36;12.10;;;9.07;;
11123;SDS011;5616;42.692;23.312;2023-03-19T03:55:03;14.45;;;10.30;;
11123;SDS011;5616;42.692;23.312;2023-03-19T03:57:31;13.88;;;9.80;;
11123;SDS011;5616;42.692;23.312;2023-03-19T03:59:57;13.93;;;8.37;;
11123;SDS011;5616;42.692;23.312;2023-03-19T04:02:24;13.10;;;8.97;;
11123;SDS011;5616;42.692;23.312;2023-03-19T04:04:53;13.57;;;8.70;;
11123;SDS011;5616;42.692;23.312;2023-03-19T04:07:20;13.30;;;8.80;;
11123;SDS011;5616;42.692;23.312;2023-03-19T04:09:52;13.67;;;8.17;;
11123;SDS011;5616;42.692;23.312;2023-03-19T04:12:19;14.03;;;8.57;;
11123;SDS011;5616;42.692;23.312;2023-03-19T04:14:47;10.97;;;8.10;;
11123;SDS011;5616;42.692;23.312;2023-03-19T04:17:14;13.20;;;7.60;;
11123;SDS011;5616;42.692;23.312;2023-03-19T04:19:41;10.37;;;7.20;;
11123;SDS011;5616;42.692;23.312;2023-03-19T04:22:10;10.73;;;7.00;;
11123;SDS011;5616;42.692;23.312;2023-03-19T04:24:37;9.93;;;7.67;;
11123;SDS011;5616;42.692;23.312;2023-03-19T04:27:05;12.47;;;7.47;;
11123;SDS011;5616;42.692;23.312;2023-03-19T04:29:33;11.60;;;7.20;;
11123;SDS011;5616;42.692;23.312;2023-03-19T04:32:00;9.67;;;7.17;;
11123;SDS011;5616;42.692;23.312;2023-03-19T04:34:27;14.10;;;7.07;;
11123;SDS011;5616;42.692;23.312;2023-03-19T04:36:54;11.00;;;7.27;;
11123;SDS011;5616;42.692;23.312;2023-03-19T04:39:23;13.00;;;7.60;;
11123;SDS011;5616;42.692;23.312;2023-03-19T04:41:50;10.20;;;7.13;;
11123;SDS011;5616;42.692;23.312;2023-03-19T04:44:23;10.80;;;7.23;;
11123;SDS011;5616;42.692;23.312;2023-03-19T04:46:51;11.50;;;7.13;;
11123;SDS011;5616;42.692;23.312;2023-03-19T04:49:20;11.47;;;7.13;;
11123;SDS011;5616;42.692;23.312;2023-03-19T04:51:48;12.40;;;7.70;;
11123;SDS011;5616;42.692;23.312;2023-03-19T04:54:15;11.40;;;7.70;;
11123;SDS011;5616;42.692;23.312;2023-03-19T04:56:43;10.07;;;7.20;;
11123;SDS011;5616;42.692;23.312;2023-03-19T04:59:10;11.87;;;7.07;;
11123;SDS011;5616;42.692;23.312;2023-03-19T05:01:37;10.50;;;7.53;;
11123;SDS011;5616;42.692;23.312;2023-03-19T05:04:06;12.43;;;6.83;;
11123;SDS011;5616;42.692;23.312;2023-03-19T05:06:34;9.67;;;7.10;;
11123;SDS011;5616;42.692;23.312;2023-03-19T05:09:03;10.87;;;7.17;;
11123;SDS011;5616;42.692;23.312;2023-03-19T05:11:31;10.00;;;7.27;;
11123;SDS011;5616;42.692;23.312;2023-03-19T05:14:04;10.83;;;6.67;;
11123;SDS011;5616;42.692;23.312;2023-03-19T05:16:55;12.13;;;7.50;;
11123;SDS011;5616;42.692;23.312;2023-03-19T05:19:24;12.13;;;8.03;;
11123;SDS011;5616;42.692;23.312;2023-03-19T05:21:52;10.30;;;6.97;;
11123;SDS011;5616;42.692;23.312;2023-03-19T05:24:23;9.60;;;6.83;;
11123;SDS011;5616;42.692;23.312;2023-03-19T05:26:51;10.43;;;7.00;;
11123;SDS011;5616;42.692;23.312;2023-03-19T05:29:28;9.80;;;7.23;;
11123;SDS011;5616;42.692;23.312;2023-03-19T05:32:11;12.57;;;7.60;;
11123;SDS011;5616;42.692;23.312;2023-03-19T05:34:38;10.27;;;7.43;;
11123;SDS011;5616;42.692;23.312;2023-03-19T05:37:06;10.70;;;7.67;;
11123;SDS011;5616;42.692;23.312;2023-03-19T05:39:34;9.57;;;7.03;;
11123;SDS011;5616;42.692;23.312;2023-03-19T05:42:05;8.20;;;7.23;;
11123;SDS011;5616;42.692;23.312;2023-03-19T05:44:33;9.23;;;6.60;;
11123;SDS011;5616;42.692;23.312;2023-03-19T05:47:23;10.57;;;6.50;;
11123;SDS011;5616;42.692;23.312;2023-03-19T05:49:53;7.40;;;6.60;;
11123;SDS011;5616;42.692;23.312;2023-03-19T05:52:21;11.20;;;6.67;;
11123;SDS011;5616;42.692;23.312;2023-03-19T05:54:49;9.87;;;6.53;;
11123;SDS011;5616;42.692;23.312;2023-03-19T05:57:35;8.77;;;6.30;;
11123;SDS011;5616;42.692;23.312;2023-03-19T06:00:18;8.63;;;6.33;;
11123;SDS011;5616;42.692;23.312;2023-03-19T06:02:46;8.07;;;5.93;;
11123;SDS011;5616;42.692;23.312;2023-03-19T06:05:47;12.23;;;8.03;;
11123;SDS011;5616;42.692;23.312;2023-03-19T06:08:29;11.17;;;8.60;;
11123;SDS011;5616;42.692;23.312;2023-03-19T06:11:01;14.53;;;9.73;;
11123;SDS011;5616;42.692;23.312;2023-03-19T06:13:28;14.07;;;10.60;;
11123;SDS011;5616;42.692;23.312;2023-03-19T06:15:59;14.70;;;11.70;;
11123;SDS011;5616;42.692;23.312;2023-03-19T06:18:49;15.57;;;10.10;;
11123;SDS011;5616;42.692;23.312;2023-03-19T06:21:15;14.67;;;9.80;;
11123;SDS011;5616;42.692;23.312;2023-03-19T06:23:43;13.07;;;9.90;;
11123;SDS011;5616;42.692;23.312;2023-03-19T06:26:13;13.90;;;9.77;;
11123;SDS011;5616;42.692;23.312;2023-03-19T06:28:45;14.03;;;9.97;;
11123;SDS011;5616;42.692;23.312;2023-03-19T06:31:14;12.77;;;8.63;;
11123;SDS011;5616;42.692;23.312;2023-03-19T06:33:59;10.07;;;7.67;;
11123;SDS011;5616;42.692;23.312;2023-03-19T06:36:35;10.60;;;7.17;;
11123;SDS011;5616;42.692;23.312;2023-03-19T06:39:02;9.00;;;6.67;;
11123;SDS011;5616;42.692;23.312;2023-03-19T06:41:29;9.30;;;6.67;;
11123;SDS011;5616;42.692;23.312;2023-03-19T06:44:07;10.20;;;6.40;;
11123;SDS011;5616;42.692;23.312;2023-03-19T06:46:35;9.30;;;6.60;;
11123;SDS011;5616;42.692;23.312;2023-03-19T06:49:02;10.43;;;7.50;;
11123;SDS011;5616;42.692;23.312;2023-03-19T06:51:29;11.43;;;7.67;;
11123;SDS011;5616;42.692;23.312;2023-03-19T06:53:55;9.00;;;7.10;;
11123;SDS011;5616;42.692;23.312;2023-03-19T06:56:22;10.40;;;7.17;;
11123;SDS011;5616;42.692;23.312;2023-03-19T06:58:49;10.90;;;7.23;;
11123;SDS011;5616;42.692;23.312;2023-03-19T07:01:16;10.67;;;6.70;;
11123;SDS011;5616;42.692;23.312;2023-03-19T07:03:44;7.53;;;6.40;;
11123;SDS011;5616;42.692;23.312;2023-03-19T07:06:11;8.10;;;6.60;;
11123;SDS011;5616;42.692;23.312;2023-03-19T07:08:38;7.57;;;6.50;;
11123;SDS011;5616;42.692;23.312;2023-03-19T07:11:10;10.03;;;6.77;;
11123;SDS011;5616;42.692;23.312;2023-03-19T07:13:38;9.47;;;6.67;;
11123;SDS011;5616;42.692;23.312;2023-03-19T07:16:05;11.63;;;6.73;;
11123;SDS011;5616;42.692;23.312;2023-03-19T07:18:32;8.97;;;7.37;;
11123;SDS011;5616;42.692;23.312;2023-03-19T07:21:01;12.10;;;8.60;;
11123;SDS011;5616;42.692;23.312;2023-03-19T07:23:28;9.63;;;8.17;;
11123;SDS011;5616;42.692;23.312;2023-03-19T07:25:55;10.60;;;7.93;;
11123;SDS011;5616;42.692;23.312;2023-03-19T07:28:22;10.30;;;8.50;;
11123;SDS011;5616;42.692;23.312;2023-03-19T07:30:50;11.33;;;8.37;;
11123;SDS011;5616;42.692;23.312;2023-03-19T07:33:17;10.83;;;8.03;;
11123;SDS011;5616;42.692;23.312;2023-03-19T07:35:44;9.47;;;7.53;;
11123;SDS011;5616;42.692;23.312;2023-03-19T07:38:12;10.13;;;7.90;;
11123;SDS011;5616;42.692;23.312;2023-03-19T07:40:39;11.30;;;7.97;;
11123;SDS011;5616;42.692;23.312;2023-03-19T07:43:06;10.87;;;7.77;;
11123;SDS011;5616;42.692;23.312;2023-03-19T07:45:33;12.93;;;7.67;;
11123;SDS011;5616;42.692;23.312;2023-03-19T07:48:00;10.47;;;7.83;;
11123;SDS011;5616;42.692;23.312;2023-03-19T07:50:27;10.30;;;7.57;;
11123;SDS011;5616;42.692;23.312;2023-03-19T07:52:55;8.67;;;7.27;;
11123;SDS011;5616;42.692;23.312;2023-03-19T07:55:23;13.07;;;7.73;;
11123;SDS011;5616;42.692;23.312;2023-03-19T07:57:50;11.27;;;7.63;;
11123;SDS011;5616;42.692;23.312;2023-03-19T08:00:17;10.90;;;7.67;;
11123;SDS011;5616;42.692;23.312;2023-03-19T08:02:44;10.67;;;7.80;;
11123;SDS011;5616;42.692;23.312;2023-03-19T08:05:11;9.43;;;7.23;;
11123;SDS011;5616;42.692;23.312;2023-03-19T08:07:38;9.10;;;7.00;;
11123;SDS011;5616;42.692;23.312;2023-03-19T08:10:06;10.20;;;6.87;;
11123;SDS011;5616;42.692;23.312;2023-03-19T08:12:35;8.37;;;6.50;;
11123;SDS011;5616;42.692;23.312;2023-03-19T08:15:05;9.70;;;6.97;;
11123;SDS011;5616;42.692;23.312;2023-03-19T08:17:33;10.33;;;7.33;;
11123;SDS011;5616;42.692;23.312;2023-03-19T08:20:03;10.10;;;6.70;;
11123;SDS011;5616;42.692;23.312;2023-03-19T08:22:31;13.37;;;7.87;;
11123;SDS011;5616;42.692;23.312;2023-03-19T08:24:58;10.30;;;7.03;;
11123;SDS011;5616;42.692;23.312;2023-03-19T08:27:24;9.60;;;6.90;;
11123;SDS011;5616;42.692;23.312;2023-03-19T08:29:53;9.33;;;7.50;;
11123;SDS011;5616;42.692;23.312;2023-03-19T08:32:20;9.33;;;7.77;;
11123;SDS011;5616;42.692;23.312;2023-03-19T08:34:47;10.90;;;8.00;;
11123;SDS011;5616;42.692;23.312;2023-03-19T08:37:14;10.53;;;7.10;;
11123;SDS011;5616;42.692;23.312;2023-03-19T08:39:41;11.83;;;7.20;;
11123;SDS011;5616;42.692;23.312;2023-03-19T08:42:08;9.57;;;7.13;;
11123;SDS011;5616;42.692;23.312;2023-03-19T08:44:35;11.00;;;7.33;;
11123;SDS011;5616;42.692;23.312;2023-03-19T08:47:04;10.60;;;6.87;;
11123;SDS011;5616;42.692;23.312;2023-03-19T08:49:31;10.03;;;7.47;;
11123;SDS011;5616;42.692;23.312;2023-03-19T08:51:58;12.90;;;6.87;;
11123;SDS011;5616;42.692;23.312;2023-03-19T08:54:25;8.23;;;6.90;;
11123;SDS011;5616;42.692;23.312;2023-03-19T08:56:51;8.50;;;6.57;;
11123;SDS011;5616;42.692;23.312;2023-03-19T08:59:18;7.77;;;6.10;;
11123;SDS011;5616;42.692;23.312;2023-03-19T09:01:48;7.33;;;5.67;;
11123;SDS011;5616;42.692;23.312;2023-03-19T09:04:17;8.10;;;6.40;;
11123;SDS011;5616;42.692;23.312;2023-03-19T09:06:44;9.30;;;6.80;;
11123;SDS011;5616;42.692;23.312;2023-03-19T09:09:15;7.87;;;6.63;;
11123;SDS011;5616;42.692;23.312;2023-03-19T09:11:42;10.53;;;6.33;;
11123;SDS011;5616;42.692;23.312;2023-03-19T09:14:09;8.80;;;6.63;;
11123;SDS011;5616;42.692;23.312;2023-03-19T09:16:37;10.10;;;6.43;;
11123;SDS011;5616;42.692;23.312;2023-03-19T09:19:04;8.40;;;6.30;;
11123;SDS011;5616;42.692;23.312;2023-03-19T09:21:32;6.63;;;5.83;;
11123;SDS011;5616;42.692;23.312;2023-03-19T09:23:59;7.77;;;6.07;;
11123;SDS011;5616;42.692;23.312;2023-03-19T09:26:26;6.43;;;5.47;;
11123;SDS011;5616;42.692;23.312;2023-03-19T09:28:53;7.20;;;5.50;;
11123;SDS011;5616;42.692;23.312;2023-03-19T09:31:20;7.53;;;5.80;;
11123;SDS011;5616;42.692;23.312;2023-03-19T09:33:47;8.03;;;6.00;;
11123;SDS011;5616;42.692;23.312;2023-03-19T09:36:15;10.27;;;6.70;;
11123;SDS011;5616;42.692;23.312;2023-03-19T09:38:43;8.87;;;6.67;;
11123;SDS011;5616;42.692;23.312;2023-03-19T09:41:12;7.47;;;6.17;;
11123;SDS011;5616;42.692;23.312;2023-03-19T09:43:54;8.47;;;6.73;;
11123;SDS011;5616;42.692;23.312;2023-03-19T09:46:26;8.77;;;6.30;;
11123;SDS011;5616;42.692;23.312;2023-03-19T09:49:02;8.07;;;6.20;;
11123;SDS011;5616;42.692;23.312;2023-03-19T09:51:34;7.77;;;6.07;;
11123;SDS011;5616;42.692;23.312;2023-03-19T09:54:24;11.70;;;6.07;;
11123;SDS011;5616;42.692;23.312;2023-03-19T09:56:53;8.63;;;7.03;;
11123;SDS011;5616;42.692;23.312;2023-03-19T09:59:21;8.93;;;7.07;;
11123;SDS011;5616;42.692;23.312;2023-03-19T10:01:52;11.23;;;7.47;;
11123;SDS011;5616;42.692;23.312;2023-03-19T10:04:33;12.00;;;8.00;;
11123;SDS011;5616;42.692;23.312;2023-03-19T10:07:07;8.10;;;6.37;;
11123;SDS011;5616;42.692;23.312;2023-03-19T10:09:51;10.00;;;7.20;;
11123;SDS011;5616;42.692;23.312;2023-03-19T10:12:28;9.93;;;7.27;;
11123;SDS011;5616;42.692;23.312;2023-03-19T10:15:13;9.33;;;6.60;;
11123;SDS011;5616;42.692;23.312;2023-03-19T10:17:47;6.13;;;5.53;;
11123;SDS011;5616;42.692;23.312;2023-03-19T10:20:21;6.30;;;4.90;;
11123;SDS011;5616;42.692;23.312;2023-03-19T10:22:56;6.37;;;5.17;;
11123;SDS011;5616;42.692;23.312;2023-03-19T10:25:29;8.10;;;5.73;;
11123;SDS011;5616;42.692;23.312;2023-03-19T10:27:59;8.03;;;5.07;;
11123;SDS011;5616;42.692;23.312;2023-03-19T10:30:36;8.17;;;5.43;;
11123;SDS011;5616;42.692;23.312;2023-03-19T10:33:05;7.00;;;6.23;;
11123;SDS011;5616;42.692;23.312;2023-03-19T10:35:42;6.80;;;5.77;;
11123;SDS011;5616;42.692;23.312;2023-03-19T10:38:17;8.93;;;5.90;;
11123;SDS011;5616;42.692;23.312;2023-03-19T10:40:50;11.77;;;6.77;;
11123;SDS011;5616;42.692;23.312;2023-03-19T10:43:29;8.67;;;5.93;;
11123;SDS011;5616;42.692;23.312;2023-03-19T10:45:59;5.77;;;4.80;;
11123;SDS011;5616;42.692;23.312;2023-03-19T10:48:25;8.53;;;6.00;;
11123;SDS011;5616;42.692;23.312;2023-03-19T10:50:55;8.60;;;5.20;;
11123;SDS011;5616;42.692;23.312;2023-03-19T10:53:28;7.83;;;5.17;;
11123;SDS011;5616;42.692;23.312;2023-03-19T10:56:01;6.30;;;5.50;;
11123;SDS011;5616;42.692;23.312;2023-03-19T10:58:29;8.30;;;5.90;;
11123;SDS011;5616;42.692;23.312;2023-03-19T11:00:58;7.40;;;5.43;;
11123;SDS011;5616;42.692;23.312;2023-03-19T11:03:30;9.50;;;5.73;;
11123;SDS011;5616;42.692;23.312;2023-03-19T11:06:02;8.40;;;5.43;;
11123;SDS011;5616;42.692;23.312;2023-03-19T11:08:33;6.97;;;5.57;;
11123;SDS011;5616;42.692;23.312;2023-03-19T11:11:03;8.27;;;5.80;;
11123;SDS011;5616;42.692;23.312;2023-03-19T11:13:31;8.53;;;5.03;;
11123;SDS011;5616;42.692;23.312;2023-03-19T11:16:00;9.13;;;5.30;;
11123;SDS011;5616;42.692;23.312;2023-03-19T11:18:28;9.33;;;5.30;;
11123;SDS011;5616;42.692;23.312;2023-03-19T11:20:57;6.80;;;4.90;;
11123;SDS011;5616;42.692;23.312;2023-03-19T11:23:26;7.83;;;4.97;;
11123;SDS011;5616;42.692;23.312;2023-03-19T11:25:54;5.83;;;4.80;;
11123;SDS011;5616;42.692;23.312;2023-03-19T11:28:27;7.13;;;4.97;;
11123;SDS011;5616;42.692;23.312;2023-03-19T11:30:59;7.33;;;4.83;;
11123;SDS011;5616;42.692;23.312;2023-03-19T11:33:42;7.23;;;4.50;;
11123;SDS011;5616;42.692;23.312;2023-03-19T11:36:19;5.53;;;4.40;;
11123;SDS011;5616;42.692;23.312;2023-03-19T11:38:57;7.50;;;4.73;;
11123;SDS011;5616;42.692;23.312;2023-03-19T11:41:35;5.70;;;4.70;;
11123;SDS011;5616;42.692;23.312;2023-03-19T11:44:17;5.70;;;4.13;;
11123;SDS011;5616;42.692;23.312;2023-03-19T11:46:53;5.33;;;4.23;;
11123;SDS011;5616;42.692;23.312;2023-03-19T11:49:29;5.20;;;4.10;;
11123;SDS011;5616;42.692;23.312;2023-03-19T11:52:10;6.27;;;4.23;;
11123;SDS011;5616;42.692;23.312;2023-03-19T11:54:43;4.90;;;4.13;;
11123;SDS011;5616;42.692;23.312;2023-03-19T11:57:25;8.23;;;4.40;;
11123;SDS011;5616;42.692;23.312;2023-03-19T12:00:05;6.27;;;4.67;;
11123;SDS011;5616;42.692;23.312;2023-03-19T12:02:47;5.63;;;4.30;;
11123;SDS011;5616;42.692;23.312;2023-03-19T12:05:37;7.40;;;4.60;;
11123;SDS011;5616;42.692;23.312;2023-03-19T12:08:23;5.93;;;4.47;;
11123;SDS011;5616;42.692;23.312;2023-03-19T12:11:05;7.47;;;4.50;;
11123;SDS011;5616;42.692;23.312;2023-03-19T12:13:48;6.67;;;4.50;;
11123;SDS011;5616;42.692;23.312;2023-03-19T12:16:27;6.37;;;4.63;;
11123;SDS011;5616;42.692;23.312;2023-03-19T12:19:19;6.03;;;4.30;;
11123;SDS011;5616;42.692;23.312;2023-03-19T12:22:00;8.07;;;4.57;;
11123;SDS011;5616;42.692;23.312;2023-03-19T12:24:45;7.00;;;5.10;;
11123;SDS011;5616;42.692;23.312;2023-03-19T12:27:25;6.30;;;5.10;;
11123;SDS011;5616;42.692;23.312;2023-03-19T12:29:59;8.57;;;4.80;;
11123;SDS011;5616;42.692;23.312;2023-03-19T12:32:33;7.53;;;4.87;;
11123;SDS011;5616;42.692;23.312;2023-03-19T12:35:11;8.10;;;4.73;;
11123;SDS011;5616;42.692;23.312;2023-03-19T12:37:44;6.80;;;4.63;;
11123;SDS011;5616;42.692;23.312;2023-03-19T12:40:21;6.20;;;3.87;;
11123;SDS011;5616;42.692;23.312;2023-03-19T12:42:54;6.17;;;4.27;;
11123;SDS011;5616;42.692;23.312;2023-03-19T12:45:25;5.53;;;4.07;;
11123;SDS011;5616;42.692;23.312;2023-03-19T12:47:58;5.53;;;4.00;;
11123;SDS011;5616;42.692;23.312;2023-03-19T12:50:30;5.73;;;3.87;;
11123;SDS011;5616;42.692;23.312;2023-03-19T12:53:03;4.67;;;3.27;;
11123;SDS011;5616;42.692;23.312;2023-03-19T12:55:34;5.80;;;3.80;;
11123;SDS011;5616;42.692;23.312;2023-03-19T12:58:08;5.77;;;3.87;;
11123;SDS011;5616;42.692;23.312;2023-03-19T13:00:45;6.53;;;3.70;;
11123;SDS011;5616;42.692;23.312;2023-03-19T13:03:20;5.03;;;3.80;;
11123;SDS011;5616;42.692;23.312;2023-03-19T13:05:54;4.73;;;3.40;;
11123;SDS011;5616;42.692;23.312;2023-03-19T13:08:26;4.63;;;3.87;;
11123;SDS011;5616;42.692;23.312;2023-03-19T13:10:58;4.50;;;3.63;;
11123;SDS011;5616;42.692;23.312;2023-03-19T13:13:30;7.87;;;4.10;;
11123;SDS011;5616;42.692;23.312;2023-03-19T13:16:05;5.37;;;3.90;;
11123;SDS011;5616;42.692;23.312;2023-03-19T13:18:45;5.20;;;3.90;;
11123;SDS011;5616;42.692;23.312;2023-03-19T13:21:21;6.77;;;3.97;;
11123;SDS011;5616;42.692;23.312;2023-03-19T13:23:50;6.00;;;3.90;;
11123;SDS011;5616;42.692;23.312;2023-03-19T13:26:29;6.43;;;4.20;;
11123;SDS011;5616;42.692;23.312;2023-03-19T13:29:00;7.73;;;3.80;;
11123;SDS011;5616;42.692;23.312;2023-03-19T13:31:33;7.27;;;4.00;;
11123;SDS011;5616;42.692;23.312;2023-03-19T13:34:03;6.73;;;3.60;;
11123;SDS011;5616;42.692;23.312;2023-03-19T13:36:34;5.70;;;3.93;;
11123;SDS011;5616;42.692;23.312;2023-03-19T13:39:03;6.17;;;3.70;;
11123;SDS011;5616;42.692;23.312;2023-03-19T13:41:49;5.57;;;3.57;;
11123;SDS011;5616;42.692;23.312;2023-03-19T13:44:23;6.80;;;3.70;;
11123;SDS011;5616;42.692;23.312;2023-03-19T13:46:54;5.67;;;3.93;;
11123;SDS011;5616;42.692;23.312;2023-03-19T13:49:24;6.77;;;3.87;;
11123;SDS011;5616;42.692;23.312;2023-03-19T13:52:02;5.73;;;3.30;;
11123;SDS011;5616;42.692;23.312;2023-03-19T13:58:17;3.97;;;2.90;;
11123;SDS011;5616;42.692;23.312;2023-03-19T14:01:03;5.50;;;3.30;;
11123;SDS011;5616;42.692;23.312;2023-03-19T14:03:31;8.07;;;3.63;;
11123;SDS011;5616;42.692;23.312;2023-03-19T14:06:02;4.93;;;3.30;;
11123;SDS011;5616;42.692;23.312;2023-03-19T14:08:31;6.73;;;3.60;;
11123;SDS011;5616;42.692;23.312;2023-03-19T14:11:07;6.80;;;3.80;;
11123;SDS011;5616;42.692;23.312;2023-03-19T14:13:37;5.70;;;3.67;;
11123;SDS011;5616;42.692;23.312;2023-03-19T14:16:11;7.60;;;4.50;;
11123;SDS011;5616;42.692;23.312;2023-03-19T14:18:43;6.27;;;3.73;;
11123;SDS011;5616;42.692;23.312;2023-03-19T14:21:12;6.03;;;3.77;;
11123;SDS011;5616;42.692;23.312;2023-03-19T14:23:41;6.57;;;3.90;;
11123;SDS011;5616;42.692;23.312;2023-03-19T14:26:18;7.37;;;3.93;;
11123;SDS011;5616;42.692;23.312;2023-03-19T14:28:48;7.27;;;3.63;;
11123;SDS011;5616;42.692;23.312;2023-03-19T14:31:25;6.13;;;4.03;;
11123;SDS011;5616;42.692;23.312;2023-03-19T14:36:54;6.93;;;4.00;;
11123;SDS011;5616;42.692;23.312;2023-03-19T14:39:23;6.60;;;3.83;;
11123;SDS011;5616;42.692;23.312;2023-03-19T14:41:56;7.83;;;3.70;;
11123;SDS011;5616;42.692;23.312;2023-03-19T14:44:48;7.80;;;3.97;;
11123;SDS011;5616;42.692;23.312;2023-03-19T14:53:40;6.83;;;4.13;;
11123;SDS011;5616;42.692;23.312;2023-03-19T14:56:12;5.77;;;3.87;;
11123;SDS011;5616;42.692;23.312;2023-03-19T14:58:47;5.80;;;4.00;;
11123;SDS011;5616;42.692;23.312;2023-03-19T15:01:15;6.70;;;3.97;;
11123;SDS011;5616;42.692;23.312;2023-03-19T15:03:43;5.97;;;4.10;;
11123;SDS011;5616;42.692;23.312;2023-03-19T15:06:11;6.87;;;3.70;;
11123;SDS011;5616;42.692;23.312;2023-03-19T15:08:41;6.13;;;4.00;;
11123;SDS011;5616;42.692;23.312;2023-03-19T15:14:11;5.03;;;3.53;;
11123;SDS011;5616;42.692;23.312;2023-03-19T15:16:50;6.40;;;3.60;;
11123;SDS011;5616;42.692;23.312;2023-03-19T15:19:23;5.23;;;3.73;;
11123;SDS011;5616;42.692;23.312;2023-03-19T15:22:02;6.33;;;3.90;;
11123;SDS011;5616;42.692;23.312;2023-03-19T15:24:31;7.20;;;4.00;;